createdAt,value
2019-02-18T00:00:07.044Z,1017.00
2019-02-18T00:01:07.016Z,1017.01
2019-02-18T00:02:06.996Z,1017.03
2019-02-18T00:03:07.001Z,1017.01
2019-02-18T00:04:07.295Z,1017.02
2019-02-18T00:05:06.937Z,1016.99
2019-02-18T00:06:06.919Z,1016.97
2019-02-18T00:07:13.997Z,1016.94
2019-02-18T00:08:06.875Z,1016.96
2019-02-18T00:09:06.881Z,1016.97
2019-02-18T00:10:06.840Z,1016.94
2019-02-18T00:11:07.701Z,1016.93
2019-02-18T00:12:06.798Z,1016.94
2019-02-18T00:13:06.781Z,1016.96
2019-02-18T00:14:06.757Z,1016.96
2019-02-18T00:15:06.750Z,1016.95
2019-02-18T00:16:06.720Z,1016.95
2019-02-18T00:17:06.707Z,1016.95
2019-02-18T00:18:06.678Z,1016.98
2019-02-18T00:19:06.671Z,1016.97
2019-02-18T00:20:06.654Z,1016.99
2019-02-18T00:21:06.626Z,1017.00
2019-02-18T00:22:06.603Z,1017.01
2019-02-18T00:23:06.581Z,1017.02
2019-02-18T00:24:06.555Z,1017.03
2019-02-18T00:25:06.610Z,1017.07
2019-02-18T00:26:06.542Z,1017.05
2019-02-18T00:27:06.501Z,1017.03
2019-02-18T00:28:06.489Z,1017.04
2019-02-18T00:29:06.456Z,1017.06
2019-02-18T00:30:06.441Z,1017.04
2019-02-18T00:31:06.423Z,1017.03
2019-02-18T00:32:06.406Z,1017.00
2019-02-18T00:33:06.392Z,1017.03
2019-02-18T00:34:06.357Z,1017.02
2019-02-18T00:35:06.338Z,1016.99
2019-02-18T00:36:06.319Z,1017.00
2019-02-18T00:37:06.321Z,1017.03
2019-02-18T00:38:06.277Z,1017.01
2019-02-18T00:39:06.253Z,1017.04
2019-02-18T00:40:06.235Z,1017.07
2019-02-18T00:41:06.215Z,1017.05
2019-02-18T00:42:06.196Z,1017.02
2019-02-18T00:43:06.205Z,1017.07
2019-02-18T00:44:06.151Z,1017.06
2019-02-18T00:45:06.138Z,1017.06
2019-02-18T00:46:06.112Z,1017.05
2019-02-18T00:47:06.099Z,1017.04
2019-02-18T00:48:06.074Z,1017.06
2019-02-18T00:49:06.071Z,1017.06
2019-02-18T00:50:06.034Z,1017.07
2019-02-18T00:51:06.016Z,1017.03
2019-02-18T00:52:05.995Z,1017.06
2019-02-18T00:53:05.995Z,1017.02
2019-02-18T00:54:06.002Z,1017.02
2019-02-18T00:55:05.931Z,1017.06
2019-02-18T00:56:05.911Z,1017.03
2019-02-18T00:57:05.893Z,1017.03
2019-02-18T00:58:05.889Z,1017.05
2019-02-18T00:59:05.852Z,1017.04
2019-02-18T01:00:05.860Z,1017.00
2019-02-18T01:01:05.816Z,1017.02
2019-02-18T01:02:05.792Z,1017.00
2019-02-18T01:03:05.771Z,1016.97
2019-02-18T01:04:05.753Z,1017.03
2019-02-18T01:05:05.739Z,1017.00
2019-02-18T01:06:05.735Z,1017.00
2019-02-18T01:07:05.702Z,1017.01
2019-02-18T01:08:05.673Z,1017.03
2019-02-18T01:09:05.681Z,1016.99
2019-02-18T01:10:06.278Z,1017.05
2019-02-18T01:11:05.613Z,1017.02
2019-02-18T01:12:05.610Z,1017.04
2019-02-18T01:13:05.570Z,1017.01
2019-02-18T01:14:05.548Z,1017.05
2019-02-18T01:15:05.530Z,1017.05
2019-02-18T01:16:05.536Z,1017.00
2019-02-18T01:17:05.495Z,1017.03
2019-02-18T01:18:05.466Z,1017.06
2019-02-18T01:19:05.453Z,1017.03
2019-02-18T01:20:05.435Z,1017.07
2019-02-18T01:21:05.446Z,1017.07
2019-02-18T01:22:05.408Z,1017.05
2019-02-18T01:23:05.368Z,1017.05
2019-02-18T01:24:05.350Z,1017.07
2019-02-18T01:25:05.332Z,1017.05
2019-02-18T01:26:05.317Z,1017.05
2019-02-18T01:27:05.315Z,1017.03
2019-02-18T01:28:05.273Z,1017.05
2019-02-18T01:29:05.245Z,1017.02
2019-02-18T01:30:05.382Z,1017.03
2019-02-18T01:31:05.205Z,1017.03
2019-02-18T01:32:05.188Z,1017.01
2019-02-18T01:33:05.180Z,1017.00
2019-02-18T01:34:05.150Z,1017.00
2019-02-18T01:35:05.148Z,1016.99
2019-02-18T01:36:05.109Z,1016.99
2019-02-18T01:37:05.093Z,1016.99
2019-02-18T01:38:05.074Z,1016.96
2019-02-18T01:39:05.052Z,1016.94
2019-02-18T01:40:05.041Z,1016.96
2019-02-18T01:41:05.005Z,1016.93
2019-02-18T01:42:04.983Z,1016.97
2019-02-18T01:43:04.971Z,1016.94
2019-02-18T01:44:04.942Z,1016.96
2019-02-18T01:45:04.945Z,1016.97
2019-02-18T01:46:04.908Z,1016.94
2019-02-18T01:47:04.887Z,1016.94
2019-02-18T01:48:04.863Z,1016.93
2019-02-18T01:49:04.841Z,1016.94
2019-02-18T01:50:04.837Z,1016.94
2019-02-18T01:51:04.802Z,1016.94
2019-02-18T01:52:04.778Z,1016.91
2019-02-18T01:53:04.760Z,1016.88
2019-02-18T01:54:04.741Z,1016.91
2019-02-18T01:55:04.737Z,1016.90
2019-02-18T01:56:04.696Z,1016.91
2019-02-18T01:57:04.696Z,1016.89
2019-02-18T01:58:04.659Z,1016.88
2019-02-18T01:59:04.639Z,1016.86
2019-02-18T02:00:04.619Z,1016.84
2019-02-18T02:01:04.595Z,1016.85
2019-02-18T02:02:04.597Z,1016.84
2019-02-18T02:03:04.556Z,1016.85
2019-02-18T02:04:04.537Z,1016.85
2019-02-18T02:05:04.525Z,1016.87
2019-02-18T02:06:04.494Z,1016.90
2019-02-18T02:07:04.475Z,1016.84
2019-02-18T02:08:04.483Z,1016.88
2019-02-18T02:09:04.430Z,1016.85
2019-02-18T02:10:04.413Z,1016.85
2019-02-18T02:11:04.401Z,1016.84
2019-02-18T02:12:04.370Z,1016.83
2019-02-18T02:13:04.369Z,1016.81
2019-02-18T02:14:04.332Z,1016.81
2019-02-18T02:15:04.339Z,1016.85
2019-02-18T02:16:04.288Z,1016.81
2019-02-18T02:17:04.265Z,1016.78
2019-02-18T02:18:04.247Z,1016.76
2019-02-18T02:19:04.228Z,1016.76
2019-02-18T02:20:04.209Z,1016.77
2019-02-18T02:21:04.206Z,1016.79
2019-02-18T02:22:04.164Z,1016.81
2019-02-18T02:23:04.145Z,1016.81
2019-02-18T02:24:04.151Z,1016.81
2019-02-18T02:25:04.105Z,1016.82
2019-02-18T02:26:04.085Z,1016.79
2019-02-18T02:27:04.070Z,1016.80
2019-02-18T02:28:04.046Z,1016.81
2019-02-18T02:29:04.022Z,1016.80
2019-02-18T02:30:04.019Z,1016.77
2019-02-18T02:31:03.980Z,1016.79
2019-02-18T02:32:03.968Z,1016.74
2019-02-18T02:33:03.938Z,1016.76
2019-02-18T02:34:03.931Z,1016.74
2019-02-18T02:35:03.919Z,1016.69
2019-02-18T02:36:03.887Z,1016.69
2019-02-18T02:37:03.856Z,1016.67
2019-02-18T02:38:07.701Z,1016.63
2019-02-18T02:39:03.816Z,1016.66
2019-02-18T02:40:03.805Z,1016.65
2019-02-18T02:41:03.792Z,1016.65
2019-02-18T02:42:03.826Z,1016.61
2019-02-18T02:43:03.756Z,1016.64
2019-02-18T02:44:03.721Z,1016.60
2019-02-18T02:45:03.692Z,1016.64
2019-02-18T02:46:03.673Z,1016.64
2019-02-18T02:47:03.678Z,1016.65
2019-02-18T02:48:03.632Z,1016.63
2019-02-18T02:49:03.621Z,1016.63
2019-02-18T02:50:03.590Z,1016.63
2019-02-18T02:51:03.587Z,1016.60
2019-02-18T02:52:03.550Z,1016.62
2019-02-18T02:53:03.550Z,1016.62
2019-02-18T02:54:03.517Z,1016.58
2019-02-18T02:55:03.484Z,1016.60
2019-02-18T02:56:03.475Z,1016.59
2019-02-18T02:57:03.460Z,1016.61
2019-02-18T02:58:03.442Z,1016.53
2019-02-18T02:59:03.401Z,1016.60
2019-02-18T03:00:03.379Z,1016.58
2019-02-18T03:01:03.356Z,1016.54
2019-02-18T03:02:03.337Z,1016.55
2019-02-18T03:03:03.342Z,1016.52
2019-02-18T03:04:03.297Z,1016.52
2019-02-18T03:05:03.281Z,1016.49
2019-02-18T03:06:03.263Z,1016.48
2019-02-18T03:07:03.235Z,1016.46
2019-02-18T03:08:03.218Z,1016.50
2019-02-18T03:09:03.227Z,1016.47
2019-02-18T03:10:03.174Z,1016.46
2019-02-18T03:11:03.167Z,1016.46
2019-02-18T03:12:03.155Z,1016.45
2019-02-18T03:13:03.115Z,1016.45
2019-02-18T03:14:03.093Z,1016.46
2019-02-18T03:15:03.094Z,1016.43
2019-02-18T03:16:03.047Z,1016.44
2019-02-18T03:17:03.032Z,1016.46
2019-02-18T03:18:03.010Z,1016.45
2019-02-18T03:19:02.988Z,1016.44
2019-02-18T03:20:02.966Z,1016.46
2019-02-18T03:21:02.975Z,1016.45
2019-02-18T03:22:02.923Z,1016.46
2019-02-18T03:23:02.908Z,1016.47
2019-02-18T03:24:03.028Z,1016.47
2019-02-18T03:25:02.865Z,1016.47
2019-02-18T03:26:02.840Z,1016.46
2019-02-18T03:27:02.840Z,1016.43
2019-02-18T03:28:02.798Z,1016.44
2019-02-18T03:29:02.786Z,1016.43
2019-02-18T03:30:02.760Z,1016.40
2019-02-18T03:31:02.742Z,1016.39
2019-02-18T03:32:02.738Z,1016.41
2019-02-18T03:33:02.710Z,1016.41
2019-02-18T03:34:02.680Z,1016.41
2019-02-18T03:35:02.653Z,1016.42
2019-02-18T03:36:02.630Z,1016.43
2019-02-18T03:37:02.614Z,1016.42
2019-02-18T03:38:02.604Z,1016.42
2019-02-18T03:39:02.605Z,1016.43
2019-02-18T03:40:02.563Z,1016.41
2019-02-18T03:41:03.566Z,1016.42
2019-02-18T03:42:02.505Z,1016.40
2019-02-18T03:43:02.486Z,1016.42
2019-02-18T03:44:02.470Z,1016.42
2019-02-18T03:45:02.461Z,1016.40
2019-02-18T03:46:02.453Z,1016.36
2019-02-18T03:47:02.415Z,1016.36
2019-02-18T03:48:02.383Z,1016.38
2019-02-18T03:49:02.361Z,1016.40
2019-02-18T03:50:02.335Z,1016.39
2019-02-18T03:51:02.334Z,1016.39
2019-02-18T03:52:02.295Z,1016.41
2019-02-18T03:53:02.276Z,1016.37
2019-02-18T03:54:02.272Z,1016.35
2019-02-18T03:55:02.241Z,1016.38
2019-02-18T03:56:02.229Z,1016.36
2019-02-18T03:57:02.194Z,1016.38
2019-02-18T03:58:02.172Z,1016.34
2019-02-18T03:59:02.153Z,1016.36
2019-02-18T04:00:02.162Z,1016.38
2019-02-18T04:01:02.103Z,1016.37
2019-02-18T04:02:02.089Z,1016.38
2019-02-18T04:03:02.075Z,1016.36
2019-02-18T04:04:02.046Z,1016.39
2019-02-18T04:05:02.026Z,1016.39
2019-02-18T04:06:02.026Z,1016.38
2019-02-18T04:07:02.001Z,1016.35
2019-02-18T04:08:01.956Z,1016.36
2019-02-18T04:09:01.941Z,1016.36
2019-02-18T04:10:01.928Z,1016.36
2019-02-18T04:11:01.922Z,1016.36
2019-02-18T04:12:01.895Z,1016.34
2019-02-18T04:13:01.856Z,1016.32
2019-02-18T04:14:01.836Z,1016.33
2019-02-18T04:15:01.823Z,1016.33
2019-02-18T04:16:01.787Z,1016.33
2019-02-18T04:17:01.769Z,1016.33
2019-02-18T04:18:01.768Z,1016.30
2019-02-18T04:19:01.733Z,1016.30
2019-02-18T04:20:01.709Z,1016.31
2019-02-18T04:21:01.689Z,1016.27
2019-02-18T04:22:01.670Z,1016.31
2019-02-18T04:23:01.661Z,1016.30
2019-02-18T04:24:01.622Z,1016.30
2019-02-18T04:25:01.604Z,1016.30
2019-02-18T04:26:01.590Z,1016.33
2019-02-18T04:27:01.561Z,1016.30
2019-02-18T04:28:01.557Z,1016.31
2019-02-18T04:29:01.537Z,1016.30
2019-02-18T04:30:01.509Z,1016.30
2019-02-18T04:31:01.509Z,1016.32
2019-02-18T04:32:01.456Z,1016.32
2019-02-18T04:33:01.442Z,1016.29
2019-02-18T04:34:01.415Z,1016.32
2019-02-18T04:35:01.392Z,1016.31
2019-02-18T04:36:01.380Z,1016.31
2019-02-18T04:37:01.366Z,1016.32
2019-02-18T04:38:01.328Z,1016.31
2019-02-18T04:39:01.310Z,1016.35
2019-02-18T04:40:01.306Z,1016.33
2019-02-18T04:41:01.266Z,1016.32
2019-02-18T04:42:01.247Z,1016.31
2019-02-18T04:43:01.226Z,1016.32
2019-02-18T04:44:01.220Z,1016.30
2019-02-18T04:45:01.201Z,1016.33
2019-02-18T04:46:01.220Z,1016.31
2019-02-18T04:47:01.149Z,1016.32
2019-02-18T04:48:01.121Z,1016.33
2019-02-18T04:49:01.095Z,1016.31
2019-02-18T04:50:01.078Z,1016.31
2019-02-18T04:51:01.086Z,1016.36
2019-02-18T04:52:01.031Z,1016.31
2019-02-18T04:53:01.011Z,1016.31
2019-02-18T04:54:00.993Z,1016.30
2019-02-18T04:55:00.965Z,1016.26
2019-02-18T04:56:00.952Z,1016.26
2019-02-18T04:57:00.943Z,1016.25
2019-02-18T04:58:00.907Z,1016.29
2019-02-18T04:59:00.882Z,1016.32
2019-02-18T05:00:00.867Z,1016.31
2019-02-18T05:01:02.913Z,1016.34
2019-02-18T05:02:00.837Z,1016.34
2019-02-18T05:03:00.800Z,1016.32
2019-02-18T05:04:00.776Z,1016.33
2019-02-18T05:05:00.757Z,1016.35
2019-02-18T05:06:00.745Z,1016.33
2019-02-18T05:07:00.713Z,1016.33
2019-02-18T05:08:00.710Z,1016.35
2019-02-18T05:09:05.196Z,1016.37
2019-02-18T05:10:00.650Z,1016.35
2019-02-18T05:11:00.632Z,1016.31
2019-02-18T05:12:00.607Z,1016.35
2019-02-18T05:13:00.613Z,1016.36
2019-02-18T05:14:00.563Z,1016.35
2019-02-18T05:15:00.547Z,1016.41
2019-02-18T05:16:00.556Z,1016.34
2019-02-18T05:17:00.504Z,1016.38
2019-02-18T05:18:00.512Z,1016.39
2019-02-18T05:19:00.481Z,1016.36
2019-02-18T05:20:00.449Z,1016.33
2019-02-18T05:21:00.415Z,1016.36
2019-02-18T05:22:00.392Z,1016.39
2019-02-18T05:23:00.377Z,1016.36
2019-02-18T05:24:00.352Z,1016.38
2019-02-18T05:25:00.399Z,1016.34
2019-02-18T05:26:00.309Z,1016.34
2019-02-18T05:27:00.283Z,1016.36
2019-02-18T05:28:00.279Z,1016.34
2019-02-18T05:29:00.257Z,1016.34
2019-02-18T05:30:00.507Z,1016.32
2019-02-18T05:31:00.220Z,1016.35
2019-02-18T05:32:00.182Z,1016.31
2019-02-18T05:33:00.169Z,1016.29
2019-02-18T05:34:00.138Z,1016.30
2019-02-18T05:35:00.140Z,1016.31
2019-02-18T05:36:00.104Z,1016.32
2019-02-18T05:37:00.073Z,1016.29
2019-02-18T05:38:00.052Z,1016.27
2019-02-18T05:39:00.050Z,1016.26
2019-02-18T05:40:00.008Z,1016.28
2019-02-18T05:41:00.005Z,1016.26
2019-02-18T05:41:59.971Z,1016.33
2019-02-18T05:42:59.955Z,1016.29
2019-02-18T05:43:59.942Z,1016.26
2019-02-18T05:44:59.903Z,1016.20
2019-02-18T05:45:59.886Z,1016.24
2019-02-18T05:46:59.886Z,1016.26
2019-02-18T05:47:59.861Z,1016.23
2019-02-18T05:48:59.819Z,1016.27
2019-02-18T05:49:59.841Z,1016.24
2019-02-18T05:50:59.785Z,1016.22
2019-02-18T05:51:59.753Z,1016.23
2019-02-18T05:52:59.738Z,1016.21
2019-02-18T05:53:59.775Z,1016.26
2019-02-18T05:54:59.688Z,1016.22
2019-02-18T05:55:59.689Z,1016.25
2019-02-18T05:56:59.654Z,1016.25
2019-02-18T05:57:59.632Z,1016.29
2019-02-18T05:58:59.618Z,1016.26
2019-02-18T05:59:59.597Z,1016.24
2019-02-18T06:00:59.559Z,1016.21
2019-02-18T06:01:59.539Z,1016.18
2019-02-18T06:02:59.532Z,1016.19
2019-02-18T06:04:00.227Z,1016.15
2019-02-18T06:04:59.496Z,1016.19
2019-02-18T06:05:59.480Z,1016.16
2019-02-18T06:06:59.442Z,1016.15
2019-02-18T06:07:59.418Z,1016.11
2019-02-18T06:08:59.438Z,1016.10
2019-02-18T06:09:59.394Z,1016.08
2019-02-18T06:10:59.364Z,1016.11
2019-02-18T06:11:59.327Z,1016.10
2019-02-18T06:12:59.316Z,1016.13
2019-02-18T06:13:59.286Z,1016.18
2019-02-18T06:14:59.267Z,1016.16
2019-02-18T06:15:59.265Z,1016.19
2019-02-18T06:16:59.238Z,1016.17
2019-02-18T06:17:59.210Z,1016.17
2019-02-18T06:18:59.181Z,1016.16
2019-02-18T06:19:59.157Z,1016.14
2019-02-18T06:20:59.161Z,1016.14
2019-02-18T06:21:59.136Z,1016.09
2019-02-18T06:22:59.097Z,1016.07
2019-02-18T06:23:59.071Z,1016.02
2019-02-18T06:24:59.052Z,1016.05
2019-02-18T06:25:59.047Z,1016.08
2019-02-18T06:26:59.031Z,1016.04
2019-02-18T06:27:58.986Z,1016.01
2019-02-18T06:28:58.969Z,1016.02
2019-02-18T06:29:58.945Z,1016.01
2019-02-18T06:30:58.921Z,1015.99
2019-02-18T06:31:58.902Z,1015.98
2019-02-18T06:33:01.056Z,1015.94
2019-02-18T06:33:58.892Z,1015.95
2019-02-18T06:34:58.840Z,1015.93
2019-02-18T06:35:58.820Z,1015.94
2019-02-18T06:36:58.795Z,1016.00
2019-02-18T06:37:58.774Z,1015.98
2019-02-18T06:38:58.766Z,1015.95
2019-02-18T06:39:58.726Z,1015.97
2019-02-18T06:40:58.707Z,1015.98
2019-02-18T06:41:58.680Z,1015.99
2019-02-18T06:42:58.673Z,1015.96
2019-02-18T06:43:58.642Z,1015.98
2019-02-18T06:44:58.657Z,1015.96
2019-02-18T06:45:58.599Z,1015.96
2019-02-18T06:46:58.592Z,1015.98
2019-02-18T06:47:58.564Z,1016.01
2019-02-18T06:48:58.527Z,1016.05
2019-02-18T06:49:58.523Z,1016.05
2019-02-18T06:50:58.517Z,1016.03
2019-02-18T06:51:58.473Z,1016.08
2019-02-18T06:52:58.448Z,1016.09
2019-02-18T06:53:58.483Z,1016.07
2019-02-18T06:54:58.406Z,1016.07
2019-02-18T06:55:58.416Z,1016.04
2019-02-18T06:56:58.391Z,1016.07
2019-02-18T06:57:58.336Z,1016.07
2019-02-18T06:58:58.317Z,1016.08
2019-02-18T06:59:58.297Z,1016.06
2019-02-18T07:00:58.275Z,1016.09
2019-02-18T07:01:58.274Z,1016.07
2019-02-18T07:02:58.255Z,1016.10
2019-02-18T07:03:58.210Z,1016.13
2019-02-18T07:04:58.195Z,1016.05
2019-02-18T07:05:58.170Z,1016.12
2019-02-18T07:06:58.147Z,1016.09
2019-02-18T07:07:58.146Z,1016.09
2019-02-18T07:08:58.108Z,1016.04
2019-02-18T07:09:58.074Z,1016.05
2019-02-18T07:10:58.059Z,1016.12
2019-02-18T07:11:58.034Z,1016.12
2019-02-18T07:12:58.035Z,1016.13
2019-02-18T07:13:57.998Z,1016.16
2019-02-18T07:14:57.972Z,1016.21
2019-02-18T07:15:58.019Z,1016.16
2019-02-18T07:16:57.927Z,1016.13
2019-02-18T07:17:57.908Z,1016.17
2019-02-18T07:18:57.910Z,1016.16
2019-02-18T07:19:57.871Z,1016.16
2019-02-18T07:20:57.856Z,1016.18
2019-02-18T07:21:57.823Z,1016.19
2019-02-18T07:24:39.734Z,1016.23
2019-02-18T07:25:39.715Z,1016.23
2019-02-18T07:26:39.677Z,1016.23
2019-02-18T07:27:39.657Z,1016.19
2019-02-18T07:28:39.626Z,1016.20
2019-02-18T07:29:39.609Z,1016.19
2019-02-18T07:30:39.589Z,1016.23
2019-02-18T07:31:39.583Z,1016.21
2019-02-18T07:32:39.550Z,1016.20
2019-02-18T07:33:39.526Z,1016.20
2019-02-18T07:34:39.527Z,1016.18
2019-02-18T07:35:39.501Z,1016.18
2019-02-18T07:36:39.472Z,1016.19
2019-02-18T07:37:39.436Z,1016.17
2019-02-18T07:38:39.426Z,1016.23
2019-02-18T07:39:39.394Z,1016.21
2019-02-18T07:40:39.387Z,1016.21
2019-02-18T07:41:39.349Z,1016.18
2019-02-18T07:42:39.360Z,1016.20
2019-02-18T07:43:39.312Z,1016.18
2019-02-18T07:44:39.290Z,1016.16
2019-02-18T07:47:21.231Z,1016.18
2019-02-18T07:48:21.222Z,1016.20
2019-02-18T07:49:21.174Z,1016.20
2019-02-18T07:50:21.239Z,1016.19
2019-02-18T07:51:21.139Z,1016.16
2019-02-18T07:52:21.108Z,1016.15
2019-02-18T07:53:21.107Z,1016.17
2019-02-18T07:54:21.073Z,1016.13
2019-02-18T07:55:21.085Z,1016.13
2019-02-18T07:56:21.031Z,1016.13
2019-02-18T07:57:21.009Z,1016.12
2019-02-18T07:58:20.990Z,1016.13
2019-02-18T07:59:20.983Z,1016.11
2019-02-18T08:00:20.945Z,1016.06
2019-02-18T08:01:20.917Z,1016.11
2019-02-18T08:02:20.900Z,1016.10
2019-02-18T08:03:20.903Z,1016.12
2019-02-18T08:04:20.862Z,1016.11
2019-02-18T08:05:20.859Z,1016.14
2019-02-18T08:06:20.815Z,1016.11
2019-02-18T08:07:20.796Z,1016.11
2019-02-18T08:08:20.881Z,1016.12
2019-02-18T08:09:20.766Z,1016.15
2019-02-18T08:10:20.738Z,1016.11
2019-02-18T08:11:20.715Z,1016.16
2019-02-18T08:12:20.715Z,1016.16
2019-02-18T08:13:20.684Z,1016.16
2019-02-18T08:14:20.665Z,1016.16
2019-02-18T08:15:20.663Z,1016.15
2019-02-18T08:16:20.611Z,1016.14
2019-02-18T08:17:20.592Z,1016.13
2019-02-18T08:18:20.589Z,1016.15
2019-02-18T08:19:20.542Z,1016.16
2019-02-18T08:20:20.526Z,1016.20
2019-02-18T08:21:20.518Z,1016.15
2019-02-18T08:22:20.487Z,1016.21
2019-02-18T08:23:20.461Z,1016.17
2019-02-18T08:24:20.442Z,1016.22
2019-02-18T08:25:20.444Z,1016.24
2019-02-18T08:26:20.426Z,1016.22
2019-02-18T08:27:20.380Z,1016.22
2019-02-18T08:28:20.369Z,1016.15
2019-02-18T08:29:20.337Z,1016.20
2019-02-18T08:30:20.312Z,1016.12
2019-02-18T08:31:20.335Z,1016.13
2019-02-18T08:32:20.283Z,1016.10
2019-02-18T08:33:20.253Z,1016.10
2019-02-18T08:34:20.235Z,1016.12
2019-02-18T08:35:20.214Z,1016.12
2019-02-18T08:36:20.198Z,1016.11
2019-02-18T08:37:20.196Z,1016.14
2019-02-18T08:38:20.153Z,1016.09
2019-02-18T08:39:20.134Z,1016.11
2019-02-18T08:40:22.641Z,1016.05
2019-02-18T08:41:20.098Z,1016.02
2019-02-18T08:42:20.069Z,1016.03
2019-02-18T08:43:20.060Z,1016.02
2019-02-18T08:44:20.048Z,1016.01
2019-02-18T08:45:20.005Z,1016.00
2019-02-18T08:46:20.185Z,1015.98
2019-02-18T08:47:20.519Z,1015.99
2019-02-18T08:48:19.969Z,1015.94
2019-02-18T08:49:19.932Z,1015.94
2019-02-18T08:50:19.919Z,1015.96
2019-02-18T08:51:19.884Z,1015.95
2019-02-18T08:52:19.860Z,1015.98
2019-02-18T08:53:19.842Z,1015.96
2019-02-18T08:54:19.826Z,1015.96
2019-02-18T08:55:19.806Z,1015.96
2019-02-18T08:56:19.819Z,1015.97
2019-02-18T08:57:19.758Z,1015.95
2019-02-18T08:58:19.741Z,1015.99
2019-02-18T08:59:19.724Z,1015.98
2019-02-18T09:00:19.700Z,1015.92
2019-02-18T09:01:19.674Z,1015.95
2019-02-18T09:02:19.673Z,1015.93
2019-02-18T09:03:19.631Z,1015.90
2019-02-18T09:04:19.620Z,1015.88
2019-02-18T09:05:19.696Z,1015.92
2019-02-18T09:06:19.598Z,1015.87
2019-02-18T09:07:19.561Z,1015.84
2019-02-18T09:08:19.531Z,1015.82
2019-02-18T09:09:19.513Z,1015.82
2019-02-18T09:10:19.496Z,1015.84
2019-02-18T09:11:19.477Z,1015.81
2019-02-18T09:12:19.886Z,1015.81
2019-02-18T09:13:19.440Z,1015.84
2019-02-18T09:14:19.411Z,1015.82
2019-02-18T09:15:19.395Z,1015.82
2019-02-18T09:16:19.379Z,1015.85
2019-02-18T09:17:19.353Z,1015.83
2019-02-18T09:18:19.350Z,1015.88
2019-02-18T09:19:19.316Z,1015.85
2019-02-18T09:20:19.299Z,1015.87
2019-02-18T09:21:19.280Z,1015.86
2019-02-18T09:22:19.247Z,1015.91
2019-02-18T09:23:19.231Z,1015.88
2019-02-18T09:24:19.230Z,1015.86
2019-02-18T09:25:19.194Z,1015.84
2019-02-18T09:26:19.172Z,1015.85
2019-02-18T09:27:19.152Z,1015.84
2019-02-18T09:28:19.129Z,1015.83
2019-02-18T09:29:19.121Z,1015.83
2019-02-18T09:30:19.129Z,1015.84
2019-02-18T09:31:19.078Z,1015.84
2019-02-18T09:32:19.062Z,1015.83
2019-02-18T09:33:19.037Z,1015.78
2019-02-18T09:34:19.034Z,1015.79
2019-02-18T09:35:18.997Z,1015.82
2019-02-18T09:36:21.339Z,1015.76
2019-02-18T09:37:18.955Z,1015.79
2019-02-18T09:38:25.067Z,1015.79
2019-02-18T09:39:30.047Z,1015.81
2019-02-18T09:40:18.931Z,1015.78
2019-02-18T09:41:18.969Z,1015.81
2019-02-18T09:42:18.864Z,1015.80
2019-02-18T09:43:18.855Z,1015.83
2019-02-18T09:44:18.825Z,1015.85
2019-02-18T09:45:18.803Z,1015.85
2019-02-18T09:46:18.804Z,1015.86
2019-02-18T09:47:18.763Z,1015.88
2019-02-18T09:48:18.767Z,1015.81
2019-02-18T09:49:18.765Z,1015.83
2019-02-18T09:50:18.698Z,1015.83
2019-02-18T09:51:18.681Z,1015.84
2019-02-18T09:52:18.680Z,1015.82
2019-02-18T09:53:18.644Z,1015.88
2019-02-18T09:54:18.628Z,1015.88
2019-02-18T09:55:18.627Z,1015.84
2019-02-18T09:56:18.589Z,1015.81
2019-02-18T09:57:18.570Z,1015.84
2019-02-18T09:58:18.573Z,1015.84
2019-02-18T09:59:18.537Z,1015.84
2019-02-18T10:00:18.518Z,1015.87
2019-02-18T10:01:18.491Z,1015.85
2019-02-18T10:02:18.494Z,1015.87
2019-02-18T10:03:18.456Z,1015.85
2019-02-18T10:04:18.432Z,1015.83
2019-02-18T10:05:18.413Z,1015.80
2019-02-18T10:06:18.399Z,1015.78
2019-02-18T10:07:18.378Z,1015.77
2019-02-18T10:08:18.375Z,1015.76
2019-02-18T10:09:18.336Z,1015.75
2019-02-18T10:10:18.342Z,1015.72
2019-02-18T10:11:18.309Z,1015.68
2019-02-18T10:12:18.900Z,1015.69
2019-02-18T10:13:18.279Z,1015.65
2019-02-18T10:14:18.266Z,1015.63
2019-02-18T10:15:18.222Z,1015.67
2019-02-18T10:16:18.209Z,1015.68
2019-02-18T10:17:18.191Z,1015.66
2019-02-18T10:18:18.166Z,1015.63
2019-02-18T10:19:18.168Z,1015.58
2019-02-18T10:20:18.138Z,1015.65
2019-02-18T10:21:18.132Z,1015.59
2019-02-18T10:22:18.087Z,1015.62
2019-02-18T10:23:18.070Z,1015.59
2019-02-18T10:24:18.064Z,1015.60
2019-02-18T10:25:18.057Z,1015.58
2019-02-18T10:26:18.025Z,1015.60
2019-02-18T10:27:18.000Z,1015.62
2019-02-18T10:28:17.979Z,1015.57
2019-02-18T10:29:17.973Z,1015.57
2019-02-18T10:30:20.602Z,1015.57
2019-02-18T10:31:17.920Z,1015.55
2019-02-18T10:32:17.910Z,1015.55
2019-02-18T10:33:17.887Z,1015.58
2019-02-18T10:34:17.867Z,1015.53
2019-02-18T10:35:17.869Z,1015.54
2019-02-18T10:36:17.841Z,1015.50
2019-02-18T10:39:03.766Z,1015.48
2019-02-18T10:40:03.730Z,1015.47
2019-02-18T10:41:06.975Z,1015.48
2019-02-18T10:42:03.694Z,1015.46
2019-02-18T10:43:03.680Z,1015.47
2019-02-18T10:44:03.660Z,1015.48
2019-02-18T10:45:03.669Z,1015.50
2019-02-18T10:46:03.637Z,1015.46
2019-02-18T10:47:03.604Z,1015.46
2019-02-18T10:48:03.583Z,1015.45
2019-02-18T10:49:03.583Z,1015.45
2019-02-18T10:50:03.551Z,1015.41
2019-02-18T10:51:03.532Z,1015.46
2019-02-18T10:52:03.509Z,1015.45
2019-02-18T10:53:03.511Z,1015.40
2019-02-18T10:54:03.477Z,1015.47
2019-02-18T10:55:03.475Z,1015.45
2019-02-18T10:56:03.442Z,1015.47
2019-02-18T10:57:03.431Z,1015.46
2019-02-18T10:58:03.417Z,1015.45
2019-02-18T10:59:03.388Z,1015.53
2019-02-18T11:00:03.364Z,1015.42
2019-02-18T11:01:03.380Z,1015.40
2019-02-18T11:02:03.333Z,1015.40
2019-02-18T11:03:03.408Z,1015.35
2019-02-18T11:04:03.326Z,1015.31
2019-02-18T11:05:03.283Z,1015.33
2019-02-18T11:06:03.273Z,1015.32
2019-02-18T11:07:03.268Z,1015.35
2019-02-18T11:08:03.231Z,1015.34
2019-02-18T11:09:03.212Z,1015.37
2019-02-18T11:10:03.215Z,1015.35
2019-02-18T11:11:03.182Z,1015.40
2019-02-18T11:12:03.166Z,1015.37
2019-02-18T11:13:03.146Z,1015.41
2019-02-18T11:14:03.137Z,1015.36
2019-02-18T11:15:03.161Z,1015.37
2019-02-18T11:16:03.103Z,1015.36
2019-02-18T11:17:03.089Z,1015.37
2019-02-18T11:18:03.076Z,1015.38
2019-02-18T11:19:03.052Z,1015.38
2019-02-18T11:20:03.047Z,1015.39
2019-02-18T11:21:03.038Z,1015.33
2019-02-18T11:22:03.011Z,1015.28
2019-02-18T11:23:03.004Z,1015.31
2019-02-18T11:24:02.987Z,1015.29
2019-02-18T11:25:02.963Z,1015.26
2019-02-18T11:26:02.968Z,1015.23
2019-02-18T11:27:02.942Z,1015.22
2019-02-18T11:28:02.921Z,1015.24
2019-02-18T11:29:02.906Z,1015.23
2019-02-18T11:30:02.888Z,1015.20
2019-02-18T11:31:02.877Z,1015.21
2019-02-18T11:32:02.884Z,1015.19
2019-02-18T11:33:02.843Z,1015.20
2019-02-18T11:34:02.835Z,1015.15
2019-02-18T11:35:02.821Z,1015.13
2019-02-18T11:36:02.806Z,1015.10
2019-02-18T11:37:02.792Z,1015.12
2019-02-18T11:38:02.795Z,1015.08
2019-02-18T11:39:02.760Z,1015.06
2019-02-18T11:40:02.747Z,1015.09
2019-02-18T11:41:02.741Z,1015.08
2019-02-18T11:42:02.722Z,1015.08
2019-02-18T11:43:02.723Z,1015.09
2019-02-18T11:44:02.697Z,1015.00
2019-02-18T11:45:02.684Z,1015.01
2019-02-18T11:46:02.671Z,1014.98
2019-02-18T11:47:02.655Z,1014.93
2019-02-18T11:48:02.656Z,1014.92
2019-02-18T11:49:02.627Z,1014.92
2019-02-18T11:50:02.608Z,1014.92
2019-02-18T11:51:02.599Z,1014.91
2019-02-18T11:52:02.588Z,1014.87
2019-02-18T11:53:02.577Z,1014.87
2019-02-18T11:54:02.600Z,1014.87
2019-02-18T11:55:02.543Z,1014.87
2019-02-18T11:56:02.548Z,1014.82
2019-02-18T11:57:02.524Z,1014.81
2019-02-18T11:58:02.509Z,1014.82
2019-02-18T11:59:02.508Z,1014.78
2019-02-18T12:00:02.479Z,1014.81
2019-02-18T12:01:02.492Z,1014.80
2019-02-18T12:02:02.456Z,1014.76
2019-02-18T12:03:06.845Z,1014.71
2019-02-18T12:04:02.428Z,1014.70
2019-02-18T12:05:02.418Z,1014.69
2019-02-18T12:06:02.399Z,1014.70
2019-02-18T12:07:02.414Z,1014.70
2019-02-18T12:08:02.381Z,1014.69
2019-02-18T12:09:02.372Z,1014.65
2019-02-18T12:10:02.356Z,1014.65